Institute, Wisconsin
Current Conditions -  °F | °C
As of 3:35 AM on Friday 31 Oct 2014 (Local Time) from KSUE Reporting Station
Overcast Overcast  
Wind Chill: 21°   Ceiling: 1700
Heat Index: 36°   Visibility: 10mi
Dew Point: 30°   Wind: 36mph
Humidity: 81%   Direction: 360°N
Pressure: 30.02"   Gusts: 46mph
Location:  44.7888°N, 87.4464°W
Report Text: KSUE 310835Z AUTO 36031G40KT 10SM BKN017 OVC026 02/M01 A3002 RMK AO1
Loading
Personal Weather Stations






























Interactive Weather Map
Tropical Storm Tracking
New forecast layout! Learn more

10-Day Weather Forecast

Advertisements
Track Severe Weather on mobile